createdAt,value
2023-02-02T00:02:08.451Z,100785.00
2023-02-02T00:04:41.881Z,100786.00
2023-02-02T00:07:15.378Z,100787.00
2023-02-02T00:09:49.399Z,100766.00
2023-02-02T00:12:24.598Z,100786.00
2023-02-02T00:14:58.472Z,100779.00
2023-02-02T00:17:31.889Z,100792.00
2023-02-02T00:20:06.043Z,100773.00
2023-02-02T00:22:39.458Z,100784.00
2023-02-02T00:25:12.770Z,100782.00
2023-02-02T00:27:47.877Z,100783.00
2023-02-02T00:30:21.849Z,100775.00
2023-02-02T00:32:55.471Z,100787.00
2023-02-02T00:35:30.371Z,100782.00
2023-02-02T00:38:04.342Z,100785.00
2023-02-02T00:40:37.786Z,100792.00
2023-02-02T00:43:12.813Z,100790.00
2023-02-02T00:45:45.625Z,100793.00
2023-02-02T00:48:19.033Z,100787.00
2023-02-02T00:50:52.863Z,100781.00
2023-02-02T00:53:26.513Z,100784.00
2023-02-02T00:56:00.101Z,100785.00
2023-02-02T00:58:35.451Z,100786.00
2023-02-02T01:01:18.066Z,100788.00
2023-02-02T01:03:52.889Z,100780.00
2023-02-02T01:06:27.265Z,100796.00
2023-02-02T01:09:00.744Z,100790.00
2023-02-02T01:11:34.249Z,100787.00
2023-02-02T01:14:09.509Z,100790.00
2023-02-02T01:16:42.840Z,100788.00
2023-02-02T01:19:17.630Z,100787.00
2023-02-02T01:21:51.332Z,100791.00
2023-02-02T01:24:25.248Z,100793.00
2023-02-02T01:26:58.771Z,100783.00
2023-02-02T01:29:33.877Z,100780.00
2023-02-02T01:32:09.821Z,100783.00
2023-02-02T01:34:43.854Z,100787.00
2023-02-02T01:37:17.299Z,100782.00
2023-02-02T01:39:50.922Z,100790.00
2023-02-02T01:42:25.811Z,100789.00
2023-02-02T01:45:27.170Z,100793.00
2023-02-02T01:48:03.577Z,100797.00
2023-02-02T01:50:37.843Z,100793.00
2023-02-02T01:53:12.776Z,100794.00
2023-02-02T01:55:46.746Z,100795.00
2023-02-02T01:58:24.841Z,100802.00
2023-02-02T02:00:59.967Z,100809.00
2023-02-02T02:03:37.438Z,100815.00
2023-02-02T02:06:15.143Z,100815.00
2023-02-02T02:08:54.703Z,100823.00
2023-02-02T02:11:28.398Z,100824.00
2023-02-02T02:14:23.631Z,100829.00
2023-02-02T02:17:29.932Z,100814.00
2023-02-02T02:21:16.960Z,100821.00
2023-02-02T02:25:04.491Z,100817.00
2023-02-02T02:28:18.395Z,100806.00
2023-02-02T02:31:52.742Z,100797.00
2023-02-02T02:34:45.026Z,100798.00
2023-02-02T02:37:31.734Z,100802.00
2023-02-02T02:40:15.516Z,100812.00
2023-02-02T02:42:56.090Z,100806.00
2023-02-02T02:45:31.378Z,100821.00
2023-02-02T02:48:04.983Z,100816.00
2023-02-02T02:50:40.743Z,100811.00
2023-02-02T02:53:21.729Z,100820.00
2023-02-02T02:56:07.688Z,100819.00
2023-02-02T02:58:54.826Z,100823.00
2023-02-02T03:01:38.670Z,100814.00
2023-02-02T03:04:20.008Z,100821.00
2023-02-02T03:07:02.721Z,100812.00
2023-02-02T03:09:43.104Z,100822.00
2023-02-02T03:12:19.483Z,100812.00
2023-02-02T03:14:53.390Z,100816.00
2023-02-02T03:17:29.679Z,100808.00
2023-02-02T03:20:03.463Z,100813.00
2023-02-02T03:22:39.115Z,100816.00
2023-02-02T03:25:13.001Z,100786.00
2023-02-02T03:27:48.159Z,100808.00
2023-02-02T03:30:23.771Z,100803.00
2023-02-02T03:32:57.530Z,100812.00
2023-02-02T03:35:31.496Z,100811.00
2023-02-02T03:38:06.582Z,100813.00
2023-02-02T03:40:41.043Z,100809.00
2023-02-02T03:43:14.783Z,100808.00
2023-02-02T03:45:48.599Z,100807.00
2023-02-02T03:48:22.411Z,100810.00
2023-02-02T03:50:56.523Z,100805.00
2023-02-02T03:53:31.862Z,100814.00
2023-02-02T03:56:06.037Z,100816.00
2023-02-02T03:58:39.786Z,100814.00
2023-02-02T04:01:15.833Z,100805.00
2023-02-02T04:03:52.083Z,100805.00
2023-02-02T04:06:27.004Z,100798.00
2023-02-02T04:09:02.117Z,100808.00
2023-02-02T04:11:35.816Z,100816.00
2023-02-02T04:14:11.149Z,100819.00
2023-02-02T04:16:44.900Z,100815.00
2023-02-02T04:19:19.107Z,100819.00
2023-02-02T04:21:52.727Z,100816.00
2023-02-02T04:24:27.626Z,100822.00
2023-02-02T04:27:01.794Z,100817.00
2023-02-02T04:29:35.531Z,100812.00
2023-02-02T04:32:09.128Z,100809.00
2023-02-02T04:34:42.650Z,100797.00
2023-02-02T04:37:16.453Z,100808.00
2023-02-02T04:39:51.936Z,100804.00
2023-02-02T04:42:25.950Z,100810.00
2023-02-02T04:44:59.559Z,100811.00
2023-02-02T04:47:33.192Z,100815.00
2023-02-02T04:50:09.096Z,100821.00
2023-02-02T04:52:42.914Z,100823.00
2023-02-02T04:55:18.339Z,100822.00
2023-02-02T04:57:51.736Z,100809.00
2023-02-02T05:00:25.452Z,100804.00
2023-02-02T05:02:59.220Z,100813.00
2023-02-02T05:05:32.624Z,100817.00
2023-02-02T05:08:08.481Z,100823.00
2023-02-02T05:10:44.015Z,100797.00
2023-02-02T05:13:17.418Z,100816.00
2023-02-02T05:16:16.087Z,100816.00
2023-02-02T05:18:51.586Z,100809.00
2023-02-02T05:21:25.763Z,100815.00
2023-02-02T05:24:01.618Z,100817.00
2023-02-02T05:26:36.694Z,100819.00
2023-02-02T05:29:10.630Z,100812.00
2023-02-02T05:31:44.386Z,100812.00
2023-02-02T05:34:18.382Z,100817.00
2023-02-02T05:36:52.424Z,100816.00
2023-02-02T05:39:26.466Z,100814.00
2023-02-02T05:42:01.963Z,100813.00
2023-02-02T05:44:36.205Z,100819.00
2023-02-02T05:47:10.569Z,100819.00
2023-02-02T05:49:44.225Z,100820.00
2023-02-02T05:52:23.904Z,100819.00
2023-02-02T05:54:57.933Z,100816.00
2023-02-02T05:57:33.091Z,100819.00
2023-02-02T06:00:08.966Z,100822.00
2023-02-02T06:02:42.665Z,100817.00
2023-02-02T06:05:17.088Z,100819.00
2023-02-02T06:07:50.658Z,100825.00
2023-02-02T06:10:24.207Z,100826.00
2023-02-02T06:12:59.527Z,100833.00
2023-02-02T06:15:33.207Z,100827.00
2023-02-02T06:18:08.581Z,100837.00
2023-02-02T06:20:42.120Z,100838.00
2023-02-02T06:23:15.930Z,100831.00
2023-02-02T06:25:49.636Z,100839.00
2023-02-02T06:28:24.776Z,100846.00
2023-02-02T06:31:06.451Z,100848.00
2023-02-02T06:33:40.399Z,100844.00
2023-02-02T06:36:14.611Z,100844.00
2023-02-02T06:38:51.408Z,100849.00
2023-02-02T06:41:26.571Z,100843.00
2023-02-02T06:44:02.551Z,100848.00
2023-02-02T06:46:36.413Z,100844.00
2023-02-02T06:49:10.115Z,100857.00
2023-02-02T06:51:43.735Z,100863.00
2023-02-02T06:54:17.756Z,100854.00
2023-02-02T06:56:53.592Z,100860.00
2023-02-02T06:59:28.869Z,100863.00
2023-02-02T07:02:02.458Z,100858.00
2023-02-02T07:04:36.417Z,100866.00
2023-02-02T07:07:11.220Z,100857.00
2023-02-02T07:09:45.072Z,100858.00
2023-02-02T07:12:19.443Z,100868.00
2023-02-02T07:14:55.839Z,100872.00
2023-02-02T07:17:29.811Z,100873.00
2023-02-02T07:20:03.639Z,100868.00
2023-02-02T07:22:40.262Z,100881.00
2023-02-02T07:25:14.455Z,100880.00
2023-02-02T07:27:48.286Z,100892.00
2023-02-02T07:30:25.629Z,100883.00
2023-02-02T07:32:59.590Z,100888.00
2023-02-02T07:35:33.272Z,100895.00
2023-02-02T07:38:06.891Z,100891.00
2023-02-02T07:40:40.841Z,100894.00
2023-02-02T07:43:14.714Z,100898.00
2023-02-02T07:45:50.025Z,100891.00
2023-02-02T07:48:23.783Z,100891.00
2023-02-02T07:51:01.992Z,100881.00
2023-02-02T07:53:37.028Z,100902.00
2023-02-02T07:56:13.159Z,100891.00
2023-02-02T07:58:47.489Z,100905.00
2023-02-02T08:01:26.153Z,100905.00
2023-02-02T08:04:01.584Z,100895.00
2023-02-02T08:06:37.485Z,100909.00
2023-02-02T08:09:11.876Z,100892.00
2023-02-02T08:11:45.574Z,100920.00
2023-02-02T08:14:19.465Z,100916.00
2023-02-02T08:16:55.009Z,100917.00
2023-02-02T08:19:28.683Z,100924.00
2023-02-02T08:22:02.601Z,100925.00
2023-02-02T08:24:40.810Z,100931.00
2023-02-02T08:27:14.617Z,100931.00
2023-02-02T08:29:48.363Z,100927.00
2023-02-02T08:32:23.578Z,100944.00
2023-02-02T08:34:58.163Z,100933.00
2023-02-02T08:37:32.128Z,100938.00
2023-02-02T08:40:07.081Z,100928.00
2023-02-02T08:42:43.562Z,100939.00
2023-02-02T08:46:01.674Z,100939.00
2023-02-02T08:48:13.002Z,100944.00
2023-02-02T08:50:54.421Z,100939.00
2023-02-02T08:53:29.573Z,100949.00
2023-02-02T08:56:06.057Z,100953.00
2023-02-02T08:58:40.559Z,100961.00
2023-02-02T09:01:18.330Z,100970.00
2023-02-02T09:04:00.092Z,100964.00
2023-02-02T09:06:36.748Z,100974.00
2023-02-02T09:09:14.361Z,100963.00
2023-02-02T09:11:49.236Z,100976.00
2023-02-02T09:14:22.848Z,100969.00
2023-02-02T09:16:56.855Z,100989.00
2023-02-02T09:19:31.870Z,100999.00
2023-02-02T09:22:05.874Z,100998.00
2023-02-02T09:24:39.719Z,101000.00
2023-02-02T09:27:14.915Z,101009.00
2023-02-02T09:29:48.874Z,101006.00
2023-02-02T09:32:22.473Z,101006.00
2023-02-02T09:34:57.612Z,101007.00
2023-02-02T09:37:31.168Z,101033.00
2023-02-02T09:40:05.655Z,101029.00
2023-02-02T09:42:56.764Z,101034.00
2023-02-02T09:45:42.361Z,101036.00
2023-02-02T09:48:34.520Z,101037.00
2023-02-02T09:51:17.698Z,101030.00
2023-02-02T09:53:59.809Z,101056.00
2023-02-02T09:56:43.288Z,101062.00
2023-02-02T09:59:24.737Z,101053.00
2023-02-02T10:02:14.762Z,101055.00
2023-02-02T10:04:53.985Z,101064.00
2023-02-02T10:07:38.968Z,101068.00
2023-02-02T10:10:22.970Z,101074.00
2023-02-02T10:13:04.105Z,101073.00
2023-02-02T10:15:46.614Z,101079.00
2023-02-02T10:18:28.646Z,101077.00
2023-02-02T10:21:06.572Z,101070.00
2023-02-02T10:23:44.394Z,101083.00
2023-02-02T10:26:21.870Z,101069.00
2023-02-02T10:29:17.210Z,101080.00
2023-02-02T10:32:07.590Z,101075.00
2023-02-02T10:34:45.663Z,101077.00
2023-02-02T10:37:32.082Z,101095.00
2023-02-02T10:40:41.459Z,101087.00
2023-02-02T10:43:47.946Z,101100.00
2023-02-02T10:46:28.731Z,101089.00
2023-02-02T10:49:21.481Z,101093.00
2023-02-02T10:52:03.627Z,101083.00
2023-02-02T10:54:58.695Z,101091.00
2023-02-02T10:58:01.992Z,101093.00
2023-02-02T11:00:45.770Z,101093.00
2023-02-02T11:03:22.680Z,101096.00
2023-02-02T11:06:15.299Z,101100.00
2023-02-02T11:08:57.097Z,101085.00
2023-02-02T11:11:35.510Z,101102.00
2023-02-02T11:14:19.070Z,101107.00
2023-02-02T11:17:05.219Z,101101.00
2023-02-02T11:19:39.971Z,101104.00
2023-02-02T11:22:32.420Z,101103.00
2023-02-02T11:25:08.358Z,101104.00
2023-02-02T11:27:45.216Z,101103.00
2023-02-02T11:30:31.841Z,101077.00
2023-02-02T11:33:28.979Z,101095.00
2023-02-02T11:36:05.946Z,101101.00
2023-02-02T11:38:40.563Z,101102.00
2023-02-02T11:41:15.756Z,101096.00
2023-02-02T11:43:53.484Z,101094.00
2023-02-02T11:46:34.829Z,101103.00
2023-02-02T11:49:19.080Z,101094.00
2023-02-02T11:52:02.201Z,101103.00
2023-02-02T11:54:39.662Z,101088.00
2023-02-02T11:57:21.856Z,101099.00
2023-02-02T12:00:19.066Z,101100.00
2023-02-02T12:02:53.891Z,101087.00
2023-02-02T12:05:39.347Z,101092.00
2023-02-02T12:08:14.461Z,101092.00
2023-02-02T12:10:59.254Z,101111.00
2023-02-02T12:13:52.496Z,101100.00
2023-02-02T12:16:53.931Z,101102.00
2023-02-02T12:20:04.133Z,101091.00
2023-02-02T12:22:57.422Z,101104.00
2023-02-02T12:26:09.093Z,101105.00
2023-02-02T12:29:18.807Z,101100.00
2023-02-02T12:32:16.280Z,101110.00
2023-02-02T12:35:10.412Z,101119.00
2023-02-02T12:38:02.936Z,101116.00
2023-02-02T12:41:11.305Z,101112.00
2023-02-02T12:43:48.801Z,101106.00
2023-02-02T12:46:51.069Z,101118.00
2023-02-02T12:49:49.009Z,101112.00
2023-02-02T12:52:48.532Z,101111.00
2023-02-02T12:55:35.526Z,101117.00
2023-02-02T12:58:29.820Z,101106.00
2023-02-02T13:01:39.104Z,101104.00
2023-02-02T13:04:40.449Z,101081.00
2023-02-02T13:07:37.390Z,101103.00
2023-02-02T13:10:22.119Z,101106.00
2023-02-02T13:13:01.539Z,101115.00
2023-02-02T13:15:40.319Z,101111.00
2023-02-02T13:18:22.952Z,101114.00
2023-02-02T13:21:03.390Z,101106.00
2023-02-02T13:23:44.896Z,101110.00
2023-02-02T13:26:23.360Z,101110.00
2023-02-02T13:29:04.782Z,101109.00
2023-02-02T13:31:47.940Z,101118.00
2023-02-02T13:34:27.502Z,101110.00
2023-02-02T13:37:09.625Z,101100.00
2023-02-02T13:39:56.119Z,101091.00
2023-02-02T13:42:43.590Z,101132.00
2023-02-02T13:45:47.686Z,101135.00
2023-02-02T13:48:38.092Z,101126.00
2023-02-02T13:51:51.189Z,101128.00
2023-02-02T13:55:22.361Z,101139.00
2023-02-02T13:58:42.655Z,101127.00
2023-02-02T14:01:17.814Z,101119.00
2023-02-02T14:03:57.892Z,101132.00
2023-02-02T14:06:58.268Z,101128.00
2023-02-02T14:09:36.718Z,101127.00
2023-02-02T14:12:13.190Z,101127.00
2023-02-02T14:14:49.090Z,101126.00
2023-02-02T14:17:54.660Z,101132.00
2023-02-02T14:20:50.362Z,101124.00
2023-02-02T14:23:54.386Z,101136.00
2023-02-02T14:26:46.917Z,101138.00
2023-02-02T14:30:00.313Z,101141.00
2023-02-02T14:32:44.495Z,101148.00
2023-02-02T14:36:01.654Z,101153.00
2023-02-02T14:39:16.795Z,101157.00
2023-02-02T14:42:34.916Z,101149.00
2023-02-02T14:45:26.335Z,101149.00
2023-02-02T14:48:02.999Z,101150.00
2023-02-02T14:50:48.209Z,101143.00
2023-02-02T14:53:30.382Z,101164.00
2023-02-02T14:56:09.851Z,101158.00
2023-02-02T14:58:47.431Z,101166.00
2023-02-02T15:01:30.715Z,101167.00
2023-02-02T15:04:27.160Z,101169.00
2023-02-02T15:08:03.928Z,101175.00
2023-02-02T15:11:02.622Z,101181.00
2023-02-02T15:13:39.069Z,101181.00
2023-02-02T15:16:26.808Z,101175.00
2023-02-02T15:19:16.177Z,101186.00
2023-02-02T15:21:54.937Z,101185.00
2023-02-02T15:24:31.966Z,101188.00
2023-02-02T15:27:09.055Z,101182.00
2023-02-02T15:29:47.507Z,101182.00
2023-02-02T15:32:28.742Z,101183.00
2023-02-02T15:35:07.374Z,101193.00
2023-02-02T15:37:45.046Z,101187.00
2023-02-02T15:40:27.256Z,101192.00
2023-02-02T15:43:09.418Z,101190.00
2023-02-02T15:45:50.024Z,101199.00
2023-02-02T15:48:29.795Z,101198.00
2023-02-02T15:51:08.162Z,101201.00
2023-02-02T15:53:52.096Z,101204.00
2023-02-02T15:56:32.256Z,101205.00
2023-02-02T15:59:21.807Z,101208.00
2023-02-02T16:02:18.019Z,101202.00
2023-02-02T16:04:52.753Z,101202.00
2023-02-02T16:07:34.052Z,101217.00
2023-02-02T16:10:18.501Z,101218.00
2023-02-02T16:12:53.606Z,101216.00
2023-02-02T16:15:31.865Z,101232.00
2023-02-02T16:18:08.590Z,101226.00
2023-02-02T16:20:47.086Z,101230.00
2023-02-02T16:23:29.995Z,101215.00
2023-02-02T16:26:07.998Z,101228.00
2023-02-02T16:28:43.283Z,101219.00
2023-02-02T16:31:19.121Z,101226.00
2023-02-02T16:33:53.088Z,101228.00
2023-02-02T16:36:33.271Z,101235.00
2023-02-02T16:39:19.008Z,101231.00
2023-02-02T16:41:52.858Z,101222.00
2023-02-02T16:44:48.859Z,101241.00
2023-02-02T16:47:39.551Z,101241.00
2023-02-02T16:50:30.163Z,101252.00
2023-02-02T16:53:07.783Z,101252.00
2023-02-02T16:55:51.311Z,101256.00
2023-02-02T16:58:27.189Z,101258.00
2023-02-02T17:01:15.540Z,101272.00
2023-02-02T17:03:55.932Z,101260.00
2023-02-02T17:06:49.982Z,101266.00
2023-02-02T17:09:36.085Z,101268.00
2023-02-02T17:12:33.685Z,101263.00
2023-02-02T17:15:34.540Z,101259.00
2023-02-02T17:18:10.767Z,101257.00
2023-02-02T17:20:44.319Z,101263.00
2023-02-02T17:23:20.633Z,101271.00
2023-02-02T17:25:56.036Z,101272.00
2023-02-02T17:28:30.572Z,101168.00
2023-02-02T17:31:09.169Z,101264.00
2023-02-02T17:33:43.882Z,101271.00
2023-02-02T17:36:17.646Z,101275.00
2023-02-02T17:38:51.555Z,101276.00
2023-02-02T17:41:27.067Z,101282.00
2023-02-02T17:44:00.737Z,101281.00
2023-02-02T17:46:35.178Z,101287.00
2023-02-02T17:49:08.881Z,101288.00
2023-02-02T17:51:43.484Z,101277.00
2023-02-02T17:54:18.586Z,101275.00
2023-02-02T17:56:53.963Z,101285.00
2023-02-02T17:59:27.466Z,101284.00
2023-02-02T18:02:01.395Z,101283.00
2023-02-02T18:04:34.988Z,101280.00
2023-02-02T18:07:09.479Z,101280.00
2023-02-02T18:09:43.343Z,101286.00
2023-02-02T18:12:18.937Z,101290.00
2023-02-02T18:14:52.856Z,101287.00
2023-02-02T18:17:26.568Z,101297.00
2023-02-02T18:20:00.653Z,101284.00
2023-02-02T18:22:34.483Z,101288.00
2023-02-02T18:25:09.835Z,101285.00
2023-02-02T18:27:47.035Z,101287.00
2023-02-02T18:30:21.352Z,101286.00
2023-02-02T18:32:54.834Z,101279.00
2023-02-02T18:35:28.926Z,101293.00
2023-02-02T18:38:02.724Z,101291.00
2023-02-02T18:40:36.450Z,101281.00
2023-02-02T18:43:11.923Z,101288.00
2023-02-02T18:45:45.395Z,101288.00
2023-02-02T18:48:19.993Z,101283.00
2023-02-02T18:50:53.857Z,101287.00
2023-02-02T18:53:27.451Z,101282.00
2023-02-02T18:56:06.307Z,101269.00
2023-02-02T18:58:42.802Z,101279.00
2023-02-02T19:01:19.958Z,101274.00
2023-02-02T19:03:58.210Z,101271.00
2023-02-02T19:06:49.381Z,101267.00
2023-02-02T19:09:22.916Z,101269.00
2023-02-02T19:11:57.059Z,101271.00
2023-02-02T19:14:36.276Z,101269.00
2023-02-02T19:17:24.720Z,101271.00
2023-02-02T19:20:24.620Z,101267.00
2023-02-02T19:23:08.732Z,101271.00
2023-02-02T19:25:46.397Z,101275.00
2023-02-02T19:28:25.670Z,101274.00
2023-02-02T19:31:03.268Z,101278.00
2023-02-02T19:33:41.828Z,101266.00
2023-02-02T19:36:18.692Z,101290.00
2023-02-02T19:38:59.952Z,101282.00
2023-02-02T19:41:34.347Z,101255.00
2023-02-02T19:44:18.182Z,101285.00
2023-02-02T19:46:57.004Z,101282.00
2023-02-02T19:49:35.004Z,101289.00
2023-02-02T19:52:19.785Z,101288.00
2023-02-02T19:54:55.479Z,101290.00
2023-02-02T19:57:38.892Z,101292.00
2023-02-02T20:00:21.540Z,101284.00
2023-02-02T20:03:03.186Z,101289.00
2023-02-02T20:05:39.980Z,101286.00
2023-02-02T20:08:25.379Z,101286.00
2023-02-02T20:11:02.953Z,101282.00
2023-02-02T20:13:45.248Z,101281.00
2023-02-02T20:16:21.561Z,101277.00
2023-02-02T20:18:59.511Z,101271.00
2023-02-02T20:21:43.272Z,101274.00
2023-02-02T20:24:23.505Z,101279.00
2023-02-02T20:27:04.629Z,101272.00
2023-02-02T20:29:42.506Z,101274.00
2023-02-02T20:32:22.713Z,101277.00
2023-02-02T20:35:00.413Z,101266.00
2023-02-02T20:37:38.947Z,101274.00
2023-02-02T20:40:26.789Z,101281.00
2023-02-02T20:43:00.569Z,101269.00
2023-02-02T20:45:34.313Z,101275.00
2023-02-02T20:48:09.798Z,101270.00
2023-02-02T20:50:47.022Z,101262.00
2023-02-02T20:53:22.692Z,101270.00
2023-02-02T20:55:58.627Z,101252.00
2023-02-02T20:58:32.481Z,101269.00
2023-02-02T21:01:06.360Z,101276.00
2023-02-02T21:03:40.334Z,101274.00
2023-02-02T21:06:15.535Z,101278.00
2023-02-02T21:08:52.618Z,101286.00
2023-02-02T21:11:27.505Z,101287.00
2023-02-02T21:14:01.998Z,101290.00
2023-02-02T21:16:35.885Z,101294.00
2023-02-02T21:19:09.906Z,101304.00
2023-02-02T21:21:45.319Z,101292.00
2023-02-02T21:24:18.985Z,101313.00
2023-02-02T21:26:54.134Z,101322.00
2023-02-02T21:29:28.147Z,101327.00
2023-02-02T21:32:03.060Z,101324.00
2023-02-02T21:34:37.848Z,101333.00
2023-02-02T21:37:18.506Z,101341.00
2023-02-02T21:39:53.344Z,101328.00
2023-02-02T21:42:30.171Z,101331.00
2023-02-02T21:45:35.559Z,101327.00
2023-02-02T21:48:28.796Z,101307.00
2023-02-02T21:51:20.994Z,101327.00
2023-02-02T21:53:59.144Z,101327.00
2023-02-02T21:56:40.092Z,101328.00
2023-02-02T21:59:17.997Z,101323.00
2023-02-02T22:01:53.372Z,101302.00
2023-02-02T22:04:29.984Z,101291.00
2023-02-02T22:07:16.616Z,101292.00
2023-02-02T22:09:54.744Z,101300.00
2023-02-02T22:12:28.953Z,101299.00
2023-02-02T22:15:05.224Z,101295.00
2023-02-02T22:17:41.993Z,101290.00
2023-02-02T22:20:33.663Z,101300.00
2023-02-02T22:23:07.089Z,101300.00
2023-02-02T22:25:42.557Z,101291.00
2023-02-02T22:28:22.573Z,101303.00
2023-02-02T22:30:58.921Z,101302.00
2023-02-02T22:33:32.583Z,101296.00
2023-02-02T22:36:08.877Z,101308.00
2023-02-02T22:38:42.324Z,101314.00
2023-02-02T22:41:17.445Z,101305.00
2023-02-02T22:43:51.159Z,101284.00
2023-02-02T22:46:24.852Z,101299.00
2023-02-02T22:48:58.629Z,101305.00
2023-02-02T22:51:32.643Z,101296.00
2023-02-02T22:54:06.766Z,101286.00
2023-02-02T22:56:41.738Z,101284.00
2023-02-02T22:59:15.614Z,101268.00
2023-02-02T23:01:49.656Z,101296.00
2023-02-02T23:04:23.347Z,101302.00
2023-02-02T23:06:57.330Z,101279.00
2023-02-02T23:09:30.690Z,101285.00
2023-02-02T23:12:06.844Z,101288.00
2023-02-02T23:14:40.228Z,101272.00
2023-02-02T23:17:13.959Z,101292.00
2023-02-02T23:19:48.314Z,101289.00
2023-02-02T23:22:22.279Z,101297.00
2023-02-02T23:24:56.368Z,101285.00
2023-02-02T23:27:31.231Z,101292.00
2023-02-02T23:30:07.400Z,101294.00
2023-02-02T23:32:41.312Z,101284.00
2023-02-02T23:35:15.344Z,101276.00
2023-02-02T23:37:48.662Z,101250.00
2023-02-02T23:40:22.365Z,101271.00
2023-02-02T23:42:57.508Z,101270.00
2023-02-02T23:45:31.504Z,101266.00
2023-02-02T23:48:05.183Z,101256.00
2023-02-02T23:50:40.051Z,101259.00
2023-02-02T23:53:14.597Z,101248.00
2023-02-02T23:55:48.370Z,101248.00
2023-02-02T23:58:23.472Z,101241.00
